sensor_id;sensor_type;location;lat;lon;timestamp;P1;durP1;ratioP1;P2;durP2;ratioP2
69596;SDS011;56802;51.184;-115.558;2022-10-17T00:01:52;7.20;;;2.50;;
69596;SDS011;56802;51.184;-115.558;2022-10-17T00:04:22;6.80;;;2.60;;
69596;SDS011;56802;51.184;-115.558;2022-10-17T00:06:51;5.80;;;2.50;;
69596;SDS011;56802;51.184;-115.558;2022-10-17T00:09:20;6.30;;;2.60;;
69596;SDS011;56802;51.184;-115.558;2022-10-17T00:11:50;6.10;;;2.80;;
69596;SDS011;56802;51.184;-115.558;2022-10-17T00:14:19;6.60;;;2.90;;
69596;SDS011;56802;51.184;-115.558;2022-10-17T00:16:48;6.50;;;2.80;;
69596;SDS011;56802;51.184;-115.558;2022-10-17T00:19:18;6.20;;;2.20;;
69596;SDS011;56802;51.184;-115.558;2022-10-17T00:21:48;6.40;;;2.70;;
69596;SDS011;56802;51.184;-115.558;2022-10-17T00:24:17;6.90;;;2.70;;
69596;SDS011;56802;51.184;-115.558;2022-10-17T00:26:47;6.50;;;2.80;;
69596;SDS011;56802;51.184;-115.558;2022-10-17T00:29:17;5.70;;;2.50;;
69596;SDS011;56802;51.184;-115.558;2022-10-17T00:31:46;7.40;;;2.40;;
69596;SDS011;56802;51.184;-115.558;2022-10-17T00:34:16;6.50;;;2.30;;
69596;SDS011;56802;51.184;-115.558;2022-10-17T00:36:45;5.80;;;2.70;;
69596;SDS011;56802;51.184;-115.558;2022-10-17T00:39:14;6.20;;;2.80;;
69596;SDS011;56802;51.184;-115.558;2022-10-17T00:41:43;6.30;;;2.20;;
69596;SDS011;56802;51.184;-115.558;2022-10-17T00:47:02;6.60;;;2.90;;
69596;SDS011;56802;51.184;-115.558;2022-10-17T00:49:35;6.30;;;2.50;;
69596;SDS011;56802;51.184;-115.558;2022-10-17T00:52:10;6.90;;;3.00;;
69596;SDS011;56802;51.184;-115.558;2022-10-17T00:55:20;6.20;;;3.00;;
69596;SDS011;56802;51.184;-115.558;2022-10-17T00:57:53;7.60;;;3.10;;
69596;SDS011;56802;51.184;-115.558;2022-10-17T01:00:23;8.30;;;2.60;;
69596;SDS011;56802;51.184;-115.558;2022-10-17T01:02:52;6.10;;;2.50;;
69596;SDS011;56802;51.184;-115.558;2022-10-17T01:05:21;6.20;;;2.70;;
69596;SDS011;56802;51.184;-115.558;2022-10-17T01:07:52;6.70;;;2.40;;
69596;SDS011;56802;51.184;-115.558;2022-10-17T01:10:34;5.90;;;2.40;;
69596;SDS011;56802;51.184;-115.558;2022-10-17T01:14:00;6.10;;;2.40;;
69596;SDS011;56802;51.184;-115.558;2022-10-17T01:16:43;7.20;;;2.80;;
69596;SDS011;56802;51.184;-115.558;2022-10-17T01:19:41;6.40;;;3.00;;
69596;SDS011;56802;51.184;-115.558;2022-10-17T01:22:45;7.30;;;3.00;;
69596;SDS011;56802;51.184;-115.558;2022-10-17T01:25:26;7.50;;;3.10;;
69596;SDS011;56802;51.184;-115.558;2022-10-17T01:35:02;10.80;;;3.50;;
69596;SDS011;56802;51.184;-115.558;2022-10-17T01:38:06;12.30;;;3.50;;
69596;SDS011;56802;51.184;-115.558;2022-10-17T01:41:09;9.00;;;3.60;;
69596;SDS011;56802;51.184;-115.558;2022-10-17T01:47:11;7.40;;;2.70;;
69596;SDS011;56802;51.184;-115.558;2022-10-17T01:49:44;8.00;;;2.80;;
69596;SDS011;56802;51.184;-115.558;2022-10-17T01:52:24;6.90;;;3.00;;
69596;SDS011;56802;51.184;-115.558;2022-10-17T01:55:17;13.10;;;3.70;;
69596;SDS011;56802;51.184;-115.558;2022-10-17T01:57:56;9.20;;;2.70;;
69596;SDS011;56802;51.184;-115.558;2022-10-17T02:00:31;7.00;;;2.30;;
69596;SDS011;56802;51.184;-115.558;2022-10-17T02:03:06;7.30;;;2.80;;
69596;SDS011;56802;51.184;-115.558;2022-10-17T02:05:41;6.00;;;2.70;;
69596;SDS011;56802;51.184;-115.558;2022-10-17T02:08:13;6.70;;;2.50;;
69596;SDS011;56802;51.184;-115.558;2022-10-17T02:10:56;6.10;;;2.50;;
69596;SDS011;56802;51.184;-115.558;2022-10-17T02:16:36;6.10;;;3.00;;
69596;SDS011;56802;51.184;-115.558;2022-10-17T02:22:28;6.50;;;3.00;;
69596;SDS011;56802;51.184;-115.558;2022-10-17T02:28:20;7.10;;;2.90;;
69596;SDS011;56802;51.184;-115.558;2022-10-17T02:31:55;6.40;;;2.80;;
69596;SDS011;56802;51.184;-115.558;2022-10-17T02:34:42;7.60;;;2.80;;
69596;SDS011;56802;51.184;-115.558;2022-10-17T02:37:22;8.50;;;3.40;;
69596;SDS011;56802;51.184;-115.558;2022-10-17T02:39:56;7.00;;;3.00;;
69596;SDS011;56802;51.184;-115.558;2022-10-17T02:42:28;7.40;;;3.00;;
69596;SDS011;56802;51.184;-115.558;2022-10-17T02:44:59;7.50;;;2.90;;
69596;SDS011;56802;51.184;-115.558;2022-10-17T02:48:18;9.40;;;3.50;;
69596;SDS011;56802;51.184;-115.558;2022-10-17T02:51:06;7.00;;;2.60;;
69596;SDS011;56802;51.184;-115.558;2022-10-17T02:54:17;8.30;;;2.70;;
69596;SDS011;56802;51.184;-115.558;2022-10-17T02:57:37;7.00;;;2.60;;
69596;SDS011;56802;51.184;-115.558;2022-10-17T03:00:09;7.10;;;2.70;;
69596;SDS011;56802;51.184;-115.558;2022-10-17T03:02:46;6.30;;;2.70;;
69596;SDS011;56802;51.184;-115.558;2022-10-17T03:05:27;6.80;;;2.60;;
69596;SDS011;56802;51.184;-115.558;2022-10-17T03:07:57;6.70;;;2.40;;
69596;SDS011;56802;51.184;-115.558;2022-10-17T03:10:26;7.50;;;2.60;;
69596;SDS011;56802;51.184;-115.558;2022-10-17T03:12:55;10.20;;;2.80;;
69596;SDS011;56802;51.184;-115.558;2022-10-17T03:15:24;7.00;;;2.60;;
69596;SDS011;56802;51.184;-115.558;2022-10-17T03:17:54;7.60;;;2.60;;
69596;SDS011;56802;51.184;-115.558;2022-10-17T03:20:23;7.20;;;2.20;;
69596;SDS011;56802;51.184;-115.558;2022-10-17T03:22:53;8.70;;;2.60;;
69596;SDS011;56802;51.184;-115.558;2022-10-17T03:25:22;7.90;;;2.70;;
69596;SDS011;56802;51.184;-115.558;2022-10-17T03:27:52;6.70;;;2.60;;
69596;SDS011;56802;51.184;-115.558;2022-10-17T03:30:21;7.10;;;2.70;;
69596;SDS011;56802;51.184;-115.558;2022-10-17T03:32:51;9.60;;;2.40;;
69596;SDS011;56802;51.184;-115.558;2022-10-17T03:35:20;6.40;;;2.70;;
69596;SDS011;56802;51.184;-115.558;2022-10-17T03:37:49;7.60;;;2.90;;
69596;SDS011;56802;51.184;-115.558;2022-10-17T03:40:19;7.30;;;2.80;;
69596;SDS011;56802;51.184;-115.558;2022-10-17T03:42:48;6.30;;;3.00;;
69596;SDS011;56802;51.184;-115.558;2022-10-17T03:45:17;7.90;;;2.70;;
69596;SDS011;56802;51.184;-115.558;2022-10-17T03:47:47;6.40;;;2.60;;
69596;SDS011;56802;51.184;-115.558;2022-10-17T03:50:16;6.70;;;3.00;;
69596;SDS011;56802;51.184;-115.558;2022-10-17T03:52:49;7.20;;;2.70;;
69596;SDS011;56802;51.184;-115.558;2022-10-17T03:55:18;5.80;;;2.50;;
69596;SDS011;56802;51.184;-115.558;2022-10-17T03:57:47;6.20;;;2.40;;
69596;SDS011;56802;51.184;-115.558;2022-10-17T04:00:16;6.00;;;2.20;;
69596;SDS011;56802;51.184;-115.558;2022-10-17T04:02:45;6.00;;;2.50;;
69596;SDS011;56802;51.184;-115.558;2022-10-17T04:05:16;6.30;;;2.70;;
69596;SDS011;56802;51.184;-115.558;2022-10-17T04:07:45;5.70;;;2.40;;
69596;SDS011;56802;51.184;-115.558;2022-10-17T04:10:14;5.60;;;2.20;;
69596;SDS011;56802;51.184;-115.558;2022-10-17T04:12:44;6.20;;;2.40;;
69596;SDS011;56802;51.184;-115.558;2022-10-17T04:15:13;6.20;;;2.40;;
69596;SDS011;56802;51.184;-115.558;2022-10-17T04:17:42;6.90;;;2.60;;
69596;SDS011;56802;51.184;-115.558;2022-10-17T04:20:14;6.50;;;2.70;;
69596;SDS011;56802;51.184;-115.558;2022-10-17T04:22:44;6.70;;;2.60;;
69596;SDS011;56802;51.184;-115.558;2022-10-17T04:25:13;5.60;;;2.00;;
69596;SDS011;56802;51.184;-115.558;2022-10-17T04:27:42;6.30;;;2.50;;
69596;SDS011;56802;51.184;-115.558;2022-10-17T04:30:11;6.30;;;2.50;;
69596;SDS011;56802;51.184;-115.558;2022-10-17T04:32:40;6.80;;;2.50;;
69596;SDS011;56802;51.184;-115.558;2022-10-17T04:35:09;5.80;;;2.10;;
69596;SDS011;56802;51.184;-115.558;2022-10-17T04:37:38;5.80;;;2.40;;
69596;SDS011;56802;51.184;-115.558;2022-10-17T04:40:08;7.90;;;2.60;;
69596;SDS011;56802;51.184;-115.558;2022-10-17T04:42:38;5.80;;;2.30;;
69596;SDS011;56802;51.184;-115.558;2022-10-17T04:45:07;7.20;;;2.90;;
69596;SDS011;56802;51.184;-115.558;2022-10-17T04:47:37;6.30;;;2.80;;
69596;SDS011;56802;51.184;-115.558;2022-10-17T04:50:06;6.30;;;2.60;;
69596;SDS011;56802;51.184;-115.558;2022-10-17T04:52:36;6.00;;;2.30;;
69596;SDS011;56802;51.184;-115.558;2022-10-17T04:55:06;5.90;;;2.20;;
69596;SDS011;56802;51.184;-115.558;2022-10-17T04:57:35;5.60;;;2.30;;
69596;SDS011;56802;51.184;-115.558;2022-10-17T05:00:05;5.60;;;2.10;;
69596;SDS011;56802;51.184;-115.558;2022-10-17T05:02:36;6.20;;;2.10;;
69596;SDS011;56802;51.184;-115.558;2022-10-17T05:05:05;6.20;;;2.60;;
69596;SDS011;56802;51.184;-115.558;2022-10-17T05:07:39;6.40;;;2.40;;
69596;SDS011;56802;51.184;-115.558;2022-10-17T05:10:08;5.40;;;2.10;;
69596;SDS011;56802;51.184;-115.558;2022-10-17T05:12:37;5.10;;;2.00;;
69596;SDS011;56802;51.184;-115.558;2022-10-17T05:15:08;5.70;;;2.10;;
69596;SDS011;56802;51.184;-115.558;2022-10-17T05:17:37;6.00;;;2.10;;
69596;SDS011;56802;51.184;-115.558;2022-10-17T05:20:07;5.20;;;2.10;;
69596;SDS011;56802;51.184;-115.558;2022-10-17T05:22:36;5.50;;;2.10;;
69596;SDS011;56802;51.184;-115.558;2022-10-17T05:25:08;5.70;;;2.10;;
69596;SDS011;56802;51.184;-115.558;2022-10-17T05:27:37;6.40;;;2.20;;
69596;SDS011;56802;51.184;-115.558;2022-10-17T05:30:07;6.40;;;2.30;;
69596;SDS011;56802;51.184;-115.558;2022-10-17T05:32:36;5.50;;;2.40;;
69596;SDS011;56802;51.184;-115.558;2022-10-17T05:35:06;6.40;;;2.30;;
69596;SDS011;56802;51.184;-115.558;2022-10-17T05:37:35;5.60;;;2.40;;
69596;SDS011;56802;51.184;-115.558;2022-10-17T05:40:04;4.90;;;1.90;;
69596;SDS011;56802;51.184;-115.558;2022-10-17T05:42:34;5.80;;;2.50;;
69596;SDS011;56802;51.184;-115.558;2022-10-17T05:45:03;6.20;;;2.30;;
69596;SDS011;56802;51.184;-115.558;2022-10-17T05:47:32;7.30;;;2.40;;
69596;SDS011;56802;51.184;-115.558;2022-10-17T05:50:01;5.90;;;2.40;;
69596;SDS011;56802;51.184;-115.558;2022-10-17T05:52:30;6.10;;;2.30;;
69596;SDS011;56802;51.184;-115.558;2022-10-17T05:54:59;6.70;;;2.50;;
69596;SDS011;56802;51.184;-115.558;2022-10-17T05:57:28;6.90;;;2.60;;
69596;SDS011;56802;51.184;-115.558;2022-10-17T05:59:58;5.60;;;2.20;;
69596;SDS011;56802;51.184;-115.558;2022-10-17T06:02:27;7.70;;;2.40;;
69596;SDS011;56802;51.184;-115.558;2022-10-17T06:04:57;7.20;;;2.30;;
69596;SDS011;56802;51.184;-115.558;2022-10-17T06:07:26;6.90;;;2.50;;
69596;SDS011;56802;51.184;-115.558;2022-10-17T06:09:55;5.80;;;2.30;;
69596;SDS011;56802;51.184;-115.558;2022-10-17T06:12:25;5.40;;;2.20;;
69596;SDS011;56802;51.184;-115.558;2022-10-17T06:14:55;5.40;;;2.40;;
69596;SDS011;56802;51.184;-115.558;2022-10-17T06:17:24;5.80;;;2.30;;
69596;SDS011;56802;51.184;-115.558;2022-10-17T06:19:53;6.60;;;2.60;;
69596;SDS011;56802;51.184;-115.558;2022-10-17T06:22:22;5.50;;;2.40;;
69596;SDS011;56802;51.184;-115.558;2022-10-17T06:24:51;5.80;;;2.30;;
69596;SDS011;56802;51.184;-115.558;2022-10-17T06:27:21;5.40;;;2.20;;
69596;SDS011;56802;51.184;-115.558;2022-10-17T06:29:50;6.10;;;2.30;;
69596;SDS011;56802;51.184;-115.558;2022-10-17T06:32:19;5.90;;;2.30;;
69596;SDS011;56802;51.184;-115.558;2022-10-17T06:34:49;5.70;;;2.30;;
69596;SDS011;56802;51.184;-115.558;2022-10-17T06:37:18;5.50;;;2.30;;
69596;SDS011;56802;51.184;-115.558;2022-10-17T06:39:49;5.10;;;2.00;;
69596;SDS011;56802;51.184;-115.558;2022-10-17T06:42:18;5.40;;;2.10;;
69596;SDS011;56802;51.184;-115.558;2022-10-17T06:44:47;5.90;;;2.50;;
69596;SDS011;56802;51.184;-115.558;2022-10-17T06:47:16;5.30;;;2.20;;
69596;SDS011;56802;51.184;-115.558;2022-10-17T06:49:46;5.40;;;1.70;;
69596;SDS011;56802;51.184;-115.558;2022-10-17T06:52:15;5.70;;;2.20;;
69596;SDS011;56802;51.184;-115.558;2022-10-17T06:54:44;5.30;;;2.00;;
69596;SDS011;56802;51.184;-115.558;2022-10-17T06:57:13;7.10;;;2.40;;
69596;SDS011;56802;51.184;-115.558;2022-10-17T06:59:42;5.70;;;2.30;;
69596;SDS011;56802;51.184;-115.558;2022-10-17T07:02:11;7.00;;;2.60;;
69596;SDS011;56802;51.184;-115.558;2022-10-17T07:04:40;6.10;;;2.10;;
69596;SDS011;56802;51.184;-115.558;2022-10-17T07:07:09;6.40;;;2.10;;
69596;SDS011;56802;51.184;-115.558;2022-10-17T07:09:38;6.20;;;2.20;;
69596;SDS011;56802;51.184;-115.558;2022-10-17T07:12:07;5.50;;;2.30;;
69596;SDS011;56802;51.184;-115.558;2022-10-17T07:14:39;5.30;;;2.20;;
69596;SDS011;56802;51.184;-115.558;2022-10-17T07:17:08;5.40;;;2.40;;
69596;SDS011;56802;51.184;-115.558;2022-10-17T07:19:37;5.70;;;2.40;;
69596;SDS011;56802;51.184;-115.558;2022-10-17T07:22:06;5.60;;;2.00;;
69596;SDS011;56802;51.184;-115.558;2022-10-17T07:24:35;5.90;;;2.30;;
69596;SDS011;56802;51.184;-115.558;2022-10-17T07:27:05;5.00;;;1.90;;
69596;SDS011;56802;51.184;-115.558;2022-10-17T07:29:34;5.80;;;2.20;;
69596;SDS011;56802;51.184;-115.558;2022-10-17T07:32:03;5.60;;;2.20;;
69596;SDS011;56802;51.184;-115.558;2022-10-17T07:34:36;5.90;;;2.20;;
69596;SDS011;56802;51.184;-115.558;2022-10-17T07:37:05;5.30;;;1.80;;
69596;SDS011;56802;51.184;-115.558;2022-10-17T07:39:36;5.70;;;2.30;;
69596;SDS011;56802;51.184;-115.558;2022-10-17T07:42:07;5.40;;;2.10;;
69596;SDS011;56802;51.184;-115.558;2022-10-17T07:44:36;5.70;;;2.00;;
69596;SDS011;56802;51.184;-115.558;2022-10-17T07:47:05;6.20;;;2.40;;
69596;SDS011;56802;51.184;-115.558;2022-10-17T07:49:34;5.70;;;2.50;;
69596;SDS011;56802;51.184;-115.558;2022-10-17T07:52:03;5.50;;;2.40;;
69596;SDS011;56802;51.184;-115.558;2022-10-17T07:54:35;5.70;;;2.10;;
69596;SDS011;56802;51.184;-115.558;2022-10-17T07:57:04;5.60;;;2.00;;
69596;SDS011;56802;51.184;-115.558;2022-10-17T07:59:34;5.60;;;2.00;;
69596;SDS011;56802;51.184;-115.558;2022-10-17T08:02:05;5.10;;;2.00;;
69596;SDS011;56802;51.184;-115.558;2022-10-17T08:04:36;5.40;;;2.00;;
69596;SDS011;56802;51.184;-115.558;2022-10-17T08:07:06;5.40;;;2.10;;
69596;SDS011;56802;51.184;-115.558;2022-10-17T08:09:50;5.80;;;2.10;;
69596;SDS011;56802;51.184;-115.558;2022-10-17T08:12:19;5.50;;;2.40;;
69596;SDS011;56802;51.184;-115.558;2022-10-17T08:14:48;5.80;;;2.30;;
69596;SDS011;56802;51.184;-115.558;2022-10-17T08:17:17;5.70;;;2.30;;
69596;SDS011;56802;51.184;-115.558;2022-10-17T08:19:46;5.10;;;2.00;;
69596;SDS011;56802;51.184;-115.558;2022-10-17T08:22:15;5.40;;;2.00;;
69596;SDS011;56802;51.184;-115.558;2022-10-17T08:24:44;5.70;;;2.30;;
69596;SDS011;56802;51.184;-115.558;2022-10-17T08:27:13;5.40;;;2.20;;
69596;SDS011;56802;51.184;-115.558;2022-10-17T08:29:48;6.80;;;2.20;;
69596;SDS011;56802;51.184;-115.558;2022-10-17T08:32:23;5.60;;;2.00;;
69596;SDS011;56802;51.184;-115.558;2022-10-17T08:34:55;6.80;;;2.20;;
69596;SDS011;56802;51.184;-115.558;2022-10-17T08:37:24;6.40;;;2.40;;
69596;SDS011;56802;51.184;-115.558;2022-10-17T08:39:53;5.30;;;2.10;;
69596;SDS011;56802;51.184;-115.558;2022-10-17T08:45:44;6.10;;;2.00;;
69596;SDS011;56802;51.184;-115.558;2022-10-17T08:48:22;5.50;;;2.10;;
69596;SDS011;56802;51.184;-115.558;2022-10-17T08:50:59;6.10;;;2.60;;
69596;SDS011;56802;51.184;-115.558;2022-10-17T08:56:24;5.30;;;2.10;;
69596;SDS011;56802;51.184;-115.558;2022-10-17T08:59:25;5.80;;;2.20;;
69596;SDS011;56802;51.184;-115.558;2022-10-17T09:07:26;5.30;;;2.20;;
69596;SDS011;56802;51.184;-115.558;2022-10-17T09:10:29;5.40;;;2.00;;
69596;SDS011;56802;51.184;-115.558;2022-10-17T09:13:22;5.30;;;2.00;;
69596;SDS011;56802;51.184;-115.558;2022-10-17T09:16:12;5.30;;;1.80;;
69596;SDS011;56802;51.184;-115.558;2022-10-17T09:19:00;5.70;;;2.10;;
69596;SDS011;56802;51.184;-115.558;2022-10-17T09:25:05;5.30;;;1.90;;
69596;SDS011;56802;51.184;-115.558;2022-10-17T09:27:52;5.70;;;2.20;;
69596;SDS011;56802;51.184;-115.558;2022-10-17T09:33:41;5.60;;;2.20;;
69596;SDS011;56802;51.184;-115.558;2022-10-17T09:36:31;5.80;;;2.50;;
69596;SDS011;56802;51.184;-115.558;2022-10-17T09:39:15;5.60;;;2.10;;
69596;SDS011;56802;51.184;-115.558;2022-10-17T09:41:52;5.90;;;2.10;;
69596;SDS011;56802;51.184;-115.558;2022-10-17T09:44:32;6.20;;;2.60;;
69596;SDS011;56802;51.184;-115.558;2022-10-17T09:47:12;6.70;;;2.20;;
69596;SDS011;56802;51.184;-115.558;2022-10-17T09:49:55;5.40;;;2.20;;
69596;SDS011;56802;51.184;-115.558;2022-10-17T09:52:33;5.40;;;1.70;;
69596;SDS011;56802;51.184;-115.558;2022-10-17T09:55:20;6.00;;;2.20;;
69596;SDS011;56802;51.184;-115.558;2022-10-17T09:57:53;6.50;;;2.20;;
69596;SDS011;56802;51.184;-115.558;2022-10-17T10:00:35;7.10;;;2.50;;
69596;SDS011;56802;51.184;-115.558;2022-10-17T10:06:11;5.40;;;2.00;;
69596;SDS011;56802;51.184;-115.558;2022-10-17T10:08:51;5.90;;;2.10;;
69596;SDS011;56802;51.184;-115.558;2022-10-17T10:11:54;5.70;;;1.90;;
69596;SDS011;56802;51.184;-115.558;2022-10-17T10:14:30;5.70;;;2.10;;
69596;SDS011;56802;51.184;-115.558;2022-10-17T10:17:04;5.60;;;2.40;;
69596;SDS011;56802;51.184;-115.558;2022-10-17T10:19:38;5.40;;;2.10;;
69596;SDS011;56802;51.184;-115.558;2022-10-17T10:22:18;6.00;;;2.10;;
69596;SDS011;56802;51.184;-115.558;2022-10-17T10:27:40;5.50;;;2.40;;
69596;SDS011;56802;51.184;-115.558;2022-10-17T10:30:20;6.10;;;2.50;;
69596;SDS011;56802;51.184;-115.558;2022-10-17T10:32:56;5.60;;;1.90;;
69596;SDS011;56802;51.184;-115.558;2022-10-17T10:35:35;5.80;;;2.20;;
69596;SDS011;56802;51.184;-115.558;2022-10-17T10:38:13;5.30;;;2.10;;
69596;SDS011;56802;51.184;-115.558;2022-10-17T10:40:47;5.80;;;2.20;;
69596;SDS011;56802;51.184;-115.558;2022-10-17T10:43:36;5.40;;;2.20;;
69596;SDS011;56802;51.184;-115.558;2022-10-17T10:46:24;6.80;;;2.00;;
69596;SDS011;56802;51.184;-115.558;2022-10-17T10:48:57;5.30;;;2.10;;
69596;SDS011;56802;51.184;-115.558;2022-10-17T10:51:42;5.30;;;1.90;;
69596;SDS011;56802;51.184;-115.558;2022-10-17T10:56:52;5.30;;;2.20;;
69596;SDS011;56802;51.184;-115.558;2022-10-17T11:11:30;5.80;;;2.00;;
69596;SDS011;56802;51.184;-115.558;2022-10-17T11:22:53;5.90;;;2.40;;
69596;SDS011;56802;51.184;-115.558;2022-10-17T11:25:34;5.50;;;2.40;;
69596;SDS011;56802;51.184;-115.558;2022-10-17T11:28:14;5.50;;;2.10;;
69596;SDS011;56802;51.184;-115.558;2022-10-17T11:30:50;6.00;;;2.20;;
69596;SDS011;56802;51.184;-115.558;2022-10-17T11:34:03;6.50;;;2.10;;
69596;SDS011;56802;51.184;-115.558;2022-10-17T11:36:39;5.30;;;2.10;;
69596;SDS011;56802;51.184;-115.558;2022-10-17T11:39:16;5.50;;;2.30;;
69596;SDS011;56802;51.184;-115.558;2022-10-17T11:42:01;5.80;;;2.10;;
69596;SDS011;56802;51.184;-115.558;2022-10-17T11:44:40;5.50;;;2.20;;
69596;SDS011;56802;51.184;-115.558;2022-10-17T11:47:39;6.10;;;2.30;;
69596;SDS011;56802;51.184;-115.558;2022-10-17T11:50:28;7.90;;;2.60;;
69596;SDS011;56802;51.184;-115.558;2022-10-17T11:53:27;5.60;;;1.80;;
69596;SDS011;56802;51.184;-115.558;2022-10-17T11:56:02;7.00;;;2.40;;
69596;SDS011;56802;51.184;-115.558;2022-10-17T12:02:21;6.30;;;2.00;;
69596;SDS011;56802;51.184;-115.558;2022-10-17T12:14:41;5.70;;;2.10;;
69596;SDS011;56802;51.184;-115.558;2022-10-17T12:22:59;5.90;;;2.40;;
69596;SDS011;56802;51.184;-115.558;2022-10-17T12:28:42;5.90;;;2.20;;
69596;SDS011;56802;51.184;-115.558;2022-10-17T12:34:00;5.40;;;2.00;;
69596;SDS011;56802;51.184;-115.558;2022-10-17T12:46:47;6.00;;;2.40;;
69596;SDS011;56802;51.184;-115.558;2022-10-17T12:52:18;6.00;;;2.30;;
69596;SDS011;56802;51.184;-115.558;2022-10-17T12:57:50;5.90;;;2.40;;
69596;SDS011;56802;51.184;-115.558;2022-10-17T13:03:43;6.10;;;2.50;;
69596;SDS011;56802;51.184;-115.558;2022-10-17T13:06:21;5.50;;;1.90;;
69596;SDS011;56802;51.184;-115.558;2022-10-17T13:09:03;5.70;;;2.10;;
69596;SDS011;56802;51.184;-115.558;2022-10-17T13:11:38;5.90;;;2.40;;
69596;SDS011;56802;51.184;-115.558;2022-10-17T13:14:12;5.90;;;2.30;;
69596;SDS011;56802;51.184;-115.558;2022-10-17T13:16:56;5.50;;;2.30;;
69596;SDS011;56802;51.184;-115.558;2022-10-17T13:19:39;6.50;;;2.20;;
69596;SDS011;56802;51.184;-115.558;2022-10-17T13:22:24;5.70;;;2.20;;
69596;SDS011;56802;51.184;-115.558;2022-10-17T13:25:11;5.40;;;2.30;;
69596;SDS011;56802;51.184;-115.558;2022-10-17T13:27:43;5.70;;;2.10;;
69596;SDS011;56802;51.184;-115.558;2022-10-17T13:30:29;5.70;;;2.20;;
69596;SDS011;56802;51.184;-115.558;2022-10-17T13:33:00;6.00;;;2.10;;
69596;SDS011;56802;51.184;-115.558;2022-10-17T13:35:34;8.60;;;2.50;;
69596;SDS011;56802;51.184;-115.558;2022-10-17T13:38:29;6.70;;;2.70;;
69596;SDS011;56802;51.184;-115.558;2022-10-17T13:41:10;6.90;;;2.10;;
69596;SDS011;56802;51.184;-115.558;2022-10-17T13:44:08;9.20;;;2.60;;
69596;SDS011;56802;51.184;-115.558;2022-10-17T13:46:42;6.80;;;2.30;;
69596;SDS011;56802;51.184;-115.558;2022-10-17T13:49:31;5.80;;;2.10;;
69596;SDS011;56802;51.184;-115.558;2022-10-17T13:52:18;5.50;;;1.90;;
69596;SDS011;56802;51.184;-115.558;2022-10-17T13:54:51;5.80;;;2.20;;
69596;SDS011;56802;51.184;-115.558;2022-10-17T13:57:26;5.80;;;2.20;;
69596;SDS011;56802;51.184;-115.558;2022-10-17T14:00:05;6.40;;;2.00;;
69596;SDS011;56802;51.184;-115.558;2022-10-17T14:02:40;6.70;;;2.20;;
69596;SDS011;56802;51.184;-115.558;2022-10-17T14:05:15;5.90;;;2.10;;
69596;SDS011;56802;51.184;-115.558;2022-10-17T14:08:03;5.60;;;2.40;;
69596;SDS011;56802;51.184;-115.558;2022-10-17T14:10:47;6.50;;;2.30;;
69596;SDS011;56802;51.184;-115.558;2022-10-17T14:13:25;7.10;;;2.40;;
69596;SDS011;56802;51.184;-115.558;2022-10-17T14:15:59;5.90;;;2.10;;
69596;SDS011;56802;51.184;-115.558;2022-10-17T14:18:33;6.30;;;2.70;;
69596;SDS011;56802;51.184;-115.558;2022-10-17T14:21:05;9.50;;;2.70;;
69596;SDS011;56802;51.184;-115.558;2022-10-17T14:24:15;8.50;;;2.30;;
69596;SDS011;56802;51.184;-115.558;2022-10-17T14:26:54;5.60;;;2.10;;
69596;SDS011;56802;51.184;-115.558;2022-10-17T14:29:48;5.60;;;2.30;;
69596;SDS011;56802;51.184;-115.558;2022-10-17T14:32:19;6.10;;;2.60;;
69596;SDS011;56802;51.184;-115.558;2022-10-17T14:34:54;6.90;;;2.50;;
69596;SDS011;56802;51.184;-115.558;2022-10-17T14:37:47;7.20;;;2.50;;
69596;SDS011;56802;51.184;-115.558;2022-10-17T14:40:26;6.50;;;2.30;;
69596;SDS011;56802;51.184;-115.558;2022-10-17T14:43:00;5.70;;;1.90;;
69596;SDS011;56802;51.184;-115.558;2022-10-17T14:45:35;5.20;;;1.60;;
69596;SDS011;56802;51.184;-115.558;2022-10-17T14:48:16;5.90;;;2.60;;
69596;SDS011;56802;51.184;-115.558;2022-10-17T14:53:43;5.80;;;2.10;;
69596;SDS011;56802;51.184;-115.558;2022-10-17T14:56:50;5.80;;;2.30;;
69596;SDS011;56802;51.184;-115.558;2022-10-17T14:59:21;6.80;;;2.40;;
69596;SDS011;56802;51.184;-115.558;2022-10-17T15:02:12;6.00;;;2.40;;
69596;SDS011;56802;51.184;-115.558;2022-10-17T15:04:42;6.30;;;2.40;;
69596;SDS011;56802;51.184;-115.558;2022-10-17T15:07:15;5.50;;;2.00;;
69596;SDS011;56802;51.184;-115.558;2022-10-17T15:09:47;6.40;;;2.10;;
69596;SDS011;56802;51.184;-115.558;2022-10-17T15:12:21;5.90;;;2.50;;
69596;SDS011;56802;51.184;-115.558;2022-10-17T15:14:52;5.70;;;2.60;;
69596;SDS011;56802;51.184;-115.558;2022-10-17T15:17:26;6.70;;;2.50;;
69596;SDS011;56802;51.184;-115.558;2022-10-17T15:19:58;6.50;;;2.00;;
69596;SDS011;56802;51.184;-115.558;2022-10-17T15:22:27;6.20;;;2.20;;
69596;SDS011;56802;51.184;-115.558;2022-10-17T15:24:58;5.90;;;2.40;;
69596;SDS011;56802;51.184;-115.558;2022-10-17T15:27:28;6.50;;;2.40;;
69596;SDS011;56802;51.184;-115.558;2022-10-17T15:29:59;6.20;;;2.70;;
69596;SDS011;56802;51.184;-115.558;2022-10-17T15:32:28;5.50;;;2.20;;
69596;SDS011;56802;51.184;-115.558;2022-10-17T15:34:59;5.40;;;2.00;;
69596;SDS011;56802;51.184;-115.558;2022-10-17T15:37:32;6.00;;;2.40;;
69596;SDS011;56802;51.184;-115.558;2022-10-17T15:40:03;5.80;;;2.40;;
69596;SDS011;56802;51.184;-115.558;2022-10-17T15:42:32;7.70;;;2.30;;
69596;SDS011;56802;51.184;-115.558;2022-10-17T15:45:02;6.00;;;2.20;;
69596;SDS011;56802;51.184;-115.558;2022-10-17T15:47:32;5.70;;;2.20;;
69596;SDS011;56802;51.184;-115.558;2022-10-17T15:50:01;6.80;;;2.30;;
69596;SDS011;56802;51.184;-115.558;2022-10-17T15:52:31;7.00;;;2.50;;
69596;SDS011;56802;51.184;-115.558;2022-10-17T15:55:00;6.90;;;2.60;;
69596;SDS011;56802;51.184;-115.558;2022-10-17T15:57:35;6.10;;;2.20;;
69596;SDS011;56802;51.184;-115.558;2022-10-17T16:02:46;5.70;;;2.20;;
69596;SDS011;56802;51.184;-115.558;2022-10-17T16:05:24;6.60;;;2.60;;
69596;SDS011;56802;51.184;-115.558;2022-10-17T16:07:54;7.90;;;1.80;;
69596;SDS011;56802;51.184;-115.558;2022-10-17T16:10:24;5.40;;;1.80;;
69596;SDS011;56802;51.184;-115.558;2022-10-17T16:12:54;6.20;;;1.90;;
69596;SDS011;56802;51.184;-115.558;2022-10-17T16:15:26;7.00;;;1.80;;
69596;SDS011;56802;51.184;-115.558;2022-10-17T16:17:56;6.70;;;2.10;;
69596;SDS011;56802;51.184;-115.558;2022-10-17T16:20:30;5.30;;;2.00;;
69596;SDS011;56802;51.184;-115.558;2022-10-17T16:22:59;5.60;;;2.10;;
69596;SDS011;56802;51.184;-115.558;2022-10-17T16:25:31;6.30;;;2.00;;
69596;SDS011;56802;51.184;-115.558;2022-10-17T16:28:00;6.20;;;2.20;;
69596;SDS011;56802;51.184;-115.558;2022-10-17T16:30:30;7.30;;;2.40;;
69596;SDS011;56802;51.184;-115.558;2022-10-17T16:33:00;6.20;;;2.40;;
69596;SDS011;56802;51.184;-115.558;2022-10-17T16:35:29;5.70;;;2.00;;
69596;SDS011;56802;51.184;-115.558;2022-10-17T16:38:05;6.00;;;2.10;;
69596;SDS011;56802;51.184;-115.558;2022-10-17T16:40:37;5.10;;;1.90;;
69596;SDS011;56802;51.184;-115.558;2022-10-17T16:43:11;5.70;;;1.90;;
69596;SDS011;56802;51.184;-115.558;2022-10-17T16:45:40;5.30;;;1.70;;
69596;SDS011;56802;51.184;-115.558;2022-10-17T16:48:09;5.40;;;2.00;;
69596;SDS011;56802;51.184;-115.558;2022-10-17T16:50:39;6.30;;;2.40;;
69596;SDS011;56802;51.184;-115.558;2022-10-17T16:53:08;6.00;;;1.90;;
69596;SDS011;56802;51.184;-115.558;2022-10-17T16:55:37;6.20;;;2.30;;